PWSweather.com
Personal Weather Stations
Station Observations

LasarteES

Lat: 43.268748, Lon: -2.019531

Elevation: 55

Station Type: DAVIS VP2

http://www.meteolasarte.com/

Latest ConditionsUpdated 6:17:03 AM GMT+01:01 Thursday, Jun 27, 2019
Currently Today's Max Today's Min Today's Average
Temperature 65.7°F18.7°C 70.2°F21.2°C 65.5°F18.6°C 67.4°F19.7°C
Dew Point 65.7°F18.7°C 68.2°F20.1°C -23.4°F-30.8°C 41.6°F5.3°C
Winds Calm Calm 6.0 mph -9.7 kmh - - 2.2 mph 3.5 kmh
Wind Gusts -- 6.0 mph9.7 kmh - -
Humidity 0% 8% 0% 2%
Pressure 30.06 in1017.9 mb 30.07 in1018.3 mb 30.06 in1017.9 mb -
Hour Temp Dew Point Humidity Winds Wind Gusts Pressure Precip Precip Rate Daily Precip Total
06:17 AM 65.7°F18.7°C 65.7°F18.7°C 0% Calm Calm -- 30.06 in1017.9 mb - 0.00 in0.0 mm 0.00 in0.0 mm
06:02 AM 65.5°F18.6°C 65.5°F18.6°C 0% Calm Calm -- 30.06 in1017.9 mb - 0.00 in0.0 mm 0.00 in0.0 mm
05:47 AM 65.5°F18.6°C 65.5°F18.6°C 0% Calm Calm -- 30.06 in1017.9 mb - 0.00 in0.0 mm 0.00 in0.0 mm
05:32 AM 65.5°F18.6°C 65.5°F18.6°C 0% Calm Calm -- 30.06 in1017.9 mb - 0.00 in0.0 mm 0.00 in0.0 mm
05:17 AM 65.7°F18.7°C 65.7°F18.7°C 0% 0.9 mph SE1.4 kmh SE -- 30.06 in1017.9 mb - 0.00 in0.0 mm 0.00 in0.0 mm
05:02 AM 65.7°F18.7°C 65.7°F18.7°C 0% 2.9 mph SE4.7 kmh SE 2.0 mph3.2 kmh 30.06 in1017.9 mb - 0.00 in0.0 mm 0.00 in0.0 mm
04:47 AM 65.8°F18.8°C 65.8°F18.8°C 0% 4.0 mph SE6.4 kmh SE 4.0 mph6.4 kmh 30.06 in1017.9 mb - 0.00 in0.0 mm 0.00 in0.0 mm
04:32 AM 65.8°F18.8°C 65.8°F18.8°C 0% 2.9 mph SE4.7 kmh SE 2.0 mph3.2 kmh 30.06 in1017.9 mb - 0.00 in0.0 mm 0.00 in0.0 mm
04:17 AM 66.0°F18.9°C 66.0°F18.9°C 0% 2.9 mph SE4.7 kmh SE 0.9 mph1.4 kmh 30.06 in1017.9 mb - 0.00 in0.0 mm 0.00 in0.0 mm
04:02 AM 66.4°F19.1°C 66.4°F19.1°C 0% 0.9 mph SE1.4 kmh SE 0.9 mph1.4 kmh 30.07 in1018.3 mb - 0.00 in0.0 mm 0.00 in0.0 mm
03:47 AM 66.6°F19.2°C 66.6°F19.2°C 0% 2.0 mph SE3.2 kmh SE -- 30.07 in1018.3 mb - 0.00 in0.0 mm 0.00 in0.0 mm
03:32 AM 66.9°F19.4°C 66.9°F19.4°C 0% 2.9 mph SE4.7 kmh SE -- 30.06 in1017.9 mb - 0.00 in0.0 mm 0.00 in0.0 mm
03:17 AM 67.3°F19.6°C 67.3°F19.6°C 0% 2.0 mph SE3.2 kmh SE 4.0 mph6.4 kmh 30.06 in1017.9 mb - 0.00 in0.0 mm 0.00 in0.0 mm
03:02 AM 67.5°F19.7°C 67.5°F19.7°C 0% 4.0 mph SE6.4 kmh SE 4.9 mph7.9 kmh 30.07 in1018.3 mb - 0.00 in0.0 mm 0.00 in0.0 mm
02:47 AM 67.5°F19.7°C 67.5°F19.7°C 0% 6.0 mph SE9.7 kmh SE 6.0 mph9.7 kmh 30.06 in1017.9 mb - 0.00 in0.0 mm 0.00 in0.0 mm
02:32 AM 67.8°F19.9°C 67.8°F19.9°C 0% 4.0 mph SE6.4 kmh SE 6.0 mph9.7 kmh 30.06 in1017.9 mb - 0.00 in0.0 mm 0.00 in0.0 mm
02:17 AM 68.2°F20.1°C 68.2°F20.1°C 0% 4.0 mph SE6.4 kmh SE 6.0 mph9.7 kmh 30.06 in1017.9 mb - 0.00 in0.0 mm 0.00 in0.0 mm
02:02 AM 68.4°F20.2°C -23.4°F-30.8°C 2% 2.0 mph SE3.2 kmh SE -- 30.07 in1018.3 mb - 0.00 in0.0 mm 0.00 in0.0 mm
01:47 AM 68.7°F20.4°C -5.1°F-20.6°C 5% 2.9 mph SE4.7 kmh SE 0.9 mph1.4 kmh 30.07 in1018.3 mb - 0.00 in0.0 mm 0.00 in0.0 mm
01:32 AM 69.1°F20.6°C -9.4°F-23.0°C 4% 0.9 mph SE1.4 kmh SE -- 30.07 in1018.3 mb - 0.00 in0.0 mm 0.00 in0.0 mm
01:17 AM 69.1°F20.6°C -9.4°F-23.0°C 4% 4.0 mph SE6.4 kmh SE -- 30.06 in1017.9 mb - 0.00 in0.0 mm 0.00 in0.0 mm
01:02 AM 69.1°F20.6°C -9.4°F-23.0°C 4% 4.0 mph SE6.4 kmh SE 2.0 mph3.2 kmh 30.07 in1018.3 mb - 0.00 in0.0 mm 0.00 in0.0 mm
12:47 AM 69.6°F20.9°C -4.4°F-20.2°C 5% 2.0 mph SE3.2 kmh SE 4.0 mph6.4 kmh 30.07 in1018.3 mb - 0.00 in0.0 mm 0.00 in0.0 mm
12:32 AM 70.0°F21.1°C 3.0°F-16.1°C 7% 2.9 mph SE4.7 kmh SE 4.9 mph7.9 kmh 30.07 in1018.3 mb - 0.00 in0.0 mm 0.00 in0.0 mm
12:17 AM 70.2°F21.2°C 6.1°F-14.4°C 8% Calm Calm -- 30.06 in1017.9 mb - 0.00 in0.0 mm 0.00 in0.0 mm
12:02 AM 70.0°F21.1°C 3.0°F-16.1°C 7% Calm Calm -- 30.06 in1017.9 mb - 0.00 in0.0 mm 0.00 in0.0 mm